createdAt,value
2023-02-16T00:01:21.084Z,102381.28
2023-02-16T00:03:48.074Z,102385.66
2023-02-16T00:06:16.298Z,102371.66
2023-02-16T00:08:44.854Z,102364.66
2023-02-16T00:11:40.777Z,102369.03
2023-02-16T00:14:08.511Z,102375.19
2023-02-16T00:16:35.608Z,102375.19
2023-02-16T00:19:02.344Z,102372.56
2023-02-16T00:21:28.797Z,102360.31
2023-02-16T00:23:55.753Z,102370.84
2023-02-16T00:26:24.803Z,102367.38
2023-02-16T00:28:52.811Z,102365.63
2023-02-16T00:31:22.365Z,102366.50
2023-02-16T00:33:48.927Z,102367.38
2023-02-16T00:36:15.925Z,102367.38
2023-02-16T00:38:42.487Z,102358.63
2023-02-16T00:41:37.032Z,102359.50
2023-02-16T00:44:03.614Z,102349.00
2023-02-16T00:46:30.110Z,102358.66
2023-02-16T00:48:56.671Z,102346.38
2023-02-16T00:51:26.190Z,102349.91
2023-02-16T00:53:53.053Z,102349.00
2023-02-16T00:56:21.020Z,102358.66
2023-02-16T00:58:49.667Z,102355.13
2023-02-16T01:01:18.038Z,102359.50
2023-02-16T01:03:44.857Z,102345.47
2023-02-16T01:06:30.419Z,102347.22
2023-02-16T01:09:19.855Z,102355.13
2023-02-16T01:11:46.326Z,102350.72
2023-02-16T01:14:13.390Z,102342.81
2023-02-16T01:16:41.576Z,102349.81
2023-02-16T01:19:10.047Z,102342.81
2023-02-16T01:21:36.553Z,102345.44
2023-02-16T01:24:03.147Z,102345.47
2023-02-16T01:26:30.191Z,102335.84
2023-02-16T01:28:56.650Z,102343.72
2023-02-16T01:31:23.252Z,102332.31
2023-02-16T01:33:50.780Z,102338.47
2023-02-16T01:36:24.845Z,102330.56
2023-02-16T01:38:51.482Z,102334.09
2023-02-16T01:41:23.774Z,102334.09
2023-02-16T01:44:03.736Z,102337.56
2023-02-16T01:46:39.788Z,102334.97
2023-02-16T01:49:11.966Z,102337.59
2023-02-16T01:51:51.388Z,102338.47
2023-02-16T01:54:29.857Z,102336.75
2023-02-16T01:57:22.737Z,102325.38
2023-02-16T01:59:49.193Z,102327.97
2023-02-16T02:02:24.589Z,102330.59
2023-02-16T02:05:12.353Z,102336.75
2023-02-16T02:07:50.925Z,102322.72
2023-02-16T02:10:25.596Z,102320.97
2023-02-16T02:12:56.483Z,102319.19
2023-02-16T02:15:25.857Z,102317.41
2023-02-16T02:17:52.538Z,102322.66
2023-02-16T02:20:44.890Z,102315.66
2023-02-16T02:23:40.515Z,102316.50
2023-02-16T02:26:43.261Z,102313.88
2023-02-16T02:29:46.931Z,102298.13
2023-02-16T02:32:25.980Z,102305.16
2023-02-16T02:35:23.520Z,102290.31
2023-02-16T02:38:05.197Z,102292.09
2023-02-16T02:40:41.146Z,102282.44
2023-02-16T02:43:14.557Z,102277.19
2023-02-16T02:45:43.782Z,102283.31
2023-02-16T02:48:10.374Z,102280.66
2023-02-16T02:50:36.877Z,102282.44
2023-02-16T02:53:08.260Z,102281.56
2023-02-16T02:55:55.590Z,102268.44
2023-02-16T02:58:42.965Z,102262.28
2023-02-16T03:01:10.237Z,102268.41
2023-02-16T03:03:41.999Z,102272.78
2023-02-16T03:06:15.552Z,102273.66
2023-02-16T03:08:45.356Z,102280.66
2023-02-16T03:11:33.954Z,102287.66
2023-02-16T03:14:56.056Z,102272.75
2023-02-16T03:17:45.396Z,102278.88
2023-02-16T03:20:32.854Z,102272.75
2023-02-16T03:23:18.167Z,102277.16
2023-02-16T03:26:03.234Z,102285.88
2023-02-16T03:28:49.633Z,102271.88
2023-02-16T03:31:20.247Z,102269.22
2023-02-16T03:33:54.429Z,102268.34
2023-02-16T03:36:25.673Z,102260.47
2023-02-16T03:38:53.149Z,102261.31
2023-02-16T03:41:19.857Z,102254.28
2023-02-16T03:43:46.315Z,102249.00
2023-02-16T03:46:12.947Z,102256.00
2023-02-16T03:48:39.501Z,102258.63
2023-02-16T03:51:06.155Z,102259.47
2023-02-16T03:53:32.752Z,102262.97
2023-02-16T03:55:59.231Z,102255.09
2023-02-16T03:58:25.944Z,102263.88
2023-02-16T04:00:53.036Z,102252.47
2023-02-16T04:03:19.485Z,102268.22
2023-02-16T04:05:46.172Z,102274.38
2023-02-16T04:08:12.951Z,102278.78
2023-02-16T04:10:39.734Z,102270.88
2023-02-16T04:13:06.270Z,102276.13
2023-02-16T04:15:32.920Z,102276.94
2023-02-16T04:17:59.433Z,102271.66
2023-02-16T04:20:29.205Z,102275.09
2023-02-16T04:22:56.163Z,102263.63
2023-02-16T04:25:22.865Z,102255.69
2023-02-16T04:27:50.298Z,102259.19
2023-02-16T04:30:19.599Z,102256.56
2023-02-16T04:32:46.155Z,102255.72
2023-02-16T04:35:12.731Z,102256.69
2023-02-16T04:37:39.284Z,102256.72
2023-02-16T04:40:06.806Z,102257.63
2023-02-16T04:42:33.348Z,102246.22
2023-02-16T04:44:59.947Z,102259.41
2023-02-16T04:47:26.743Z,102262.91
2023-02-16T04:49:53.730Z,102246.25
2023-02-16T04:52:20.598Z,102259.44
2023-02-16T04:54:47.248Z,102251.56
2023-02-16T04:57:13.706Z,102264.72
2023-02-16T04:59:40.163Z,102264.72
2023-02-16T05:02:06.642Z,102263.81
2023-02-16T05:04:33.393Z,102243.66
2023-02-16T05:06:59.902Z,102243.63
2023-02-16T05:09:26.439Z,102243.59
2023-02-16T05:12:11.434Z,102247.13
2023-02-16T05:14:45.402Z,102235.75
2023-02-16T05:17:13.566Z,102240.13
2023-02-16T05:19:41.338Z,102237.50
2023-02-16T05:22:08.158Z,102239.28
2023-02-16T05:24:34.977Z,102239.28
2023-02-16T05:27:06.945Z,102241.91
2023-02-16T05:29:33.841Z,102246.28
2023-02-16T05:32:03.259Z,102244.59
2023-02-16T05:34:30.815Z,102241.97
2023-02-16T05:36:57.296Z,102250.72
2023-02-16T05:39:24.027Z,102240.22
2023-02-16T05:41:50.533Z,102242.84
2023-02-16T05:44:17.473Z,102246.31
2023-02-16T05:46:44.336Z,102237.50
2023-02-16T05:49:10.879Z,102239.28
2023-02-16T05:51:38.008Z,102241.94
2023-02-16T05:54:05.476Z,102244.56
2023-02-16T05:56:32.697Z,102237.56
2023-02-16T05:59:00.446Z,102252.47
2023-02-16T06:01:28.506Z,102242.84
2023-02-16T06:03:55.237Z,102229.72
2023-02-16T06:06:21.811Z,102239.31
2023-02-16T06:08:48.302Z,102243.69
2023-02-16T06:11:33.481Z,102246.34
2023-02-16T06:13:59.981Z,102250.69
2023-02-16T06:16:27.807Z,102249.84
2023-02-16T06:18:54.700Z,102238.44
2023-02-16T06:21:22.111Z,102241.97
2023-02-16T06:23:48.944Z,102239.34
2023-02-16T06:26:16.358Z,102243.75
2023-02-16T06:28:43.053Z,102236.72
2023-02-16T06:31:09.833Z,102233.19
2023-02-16T06:33:36.513Z,102253.34
2023-02-16T06:36:03.410Z,102248.13
2023-02-16T06:38:29.968Z,102258.59
2023-02-16T06:40:56.467Z,102262.09
2023-02-16T06:43:22.984Z,102261.22
2023-02-16T06:45:49.577Z,102265.59
2023-02-16T06:48:16.329Z,102266.44
2023-02-16T06:50:43.129Z,102266.41
2023-02-16T06:53:09.703Z,102272.56
2023-02-16T06:55:36.865Z,102269.91
2023-02-16T06:58:07.286Z,102276.03
2023-02-16T07:00:34.735Z,102265.50
2023-02-16T07:03:02.066Z,102281.25
2023-02-16T07:05:28.821Z,102276.00
2023-02-16T07:07:55.315Z,102269.00
2023-02-16T07:10:21.776Z,102263.72
2023-02-16T07:12:48.813Z,102274.22
2023-02-16T07:15:15.329Z,102279.47
2023-02-16T07:17:41.831Z,102276.81
2023-02-16T07:20:08.703Z,102272.38
2023-02-16T07:22:35.210Z,102289.03
2023-02-16T07:25:01.754Z,102280.22
2023-02-16T07:27:28.241Z,102288.06
2023-02-16T07:29:54.833Z,102278.41
2023-02-16T07:32:21.685Z,102288.00
2023-02-16T07:34:48.176Z,102289.78
2023-02-16T07:37:14.702Z,102295.03
2023-02-16T07:39:41.200Z,102308.19
2023-02-16T07:42:07.784Z,102301.19
2023-02-16T07:44:34.273Z,102299.44
2023-02-16T07:47:00.741Z,102311.75
2023-02-16T07:49:27.252Z,102302.16
2023-02-16T07:51:53.759Z,102311.91
2023-02-16T07:54:20.468Z,102317.25
2023-02-16T07:56:47.095Z,102319.91
2023-02-16T07:59:15.557Z,102315.56
2023-02-16T08:01:42.590Z,102318.19
2023-02-16T08:04:09.322Z,102319.06
2023-02-16T08:06:35.845Z,102324.34
2023-02-16T08:09:02.681Z,102325.19
2023-02-16T08:11:29.266Z,102324.34
2023-02-16T08:13:55.839Z,102320.81
2023-02-16T08:16:24.399Z,102328.69
2023-02-16T08:18:52.238Z,102332.22
2023-02-16T08:21:20.875Z,102322.63
2023-02-16T08:23:52.738Z,102331.38
2023-02-16T08:26:20.523Z,102320.88
2023-02-16T08:28:50.050Z,102326.09
2023-02-16T08:31:19.249Z,102327.88
2023-02-16T08:33:47.535Z,102326.97
2023-02-16T08:36:23.510Z,102325.19
2023-02-16T08:38:51.326Z,102330.47
2023-02-16T08:41:18.977Z,102335.72
2023-02-16T08:43:46.056Z,102339.19
2023-02-16T08:46:12.875Z,102322.50
2023-02-16T08:48:40.018Z,102333.84
2023-02-16T08:51:07.674Z,102331.19
2023-02-16T08:53:35.051Z,102326.78
2023-02-16T08:56:05.036Z,102339.91
2023-02-16T08:58:31.794Z,102340.75
2023-02-16T09:00:58.537Z,102339.00
2023-02-16T09:03:25.401Z,102332.84
2023-02-16T09:05:52.902Z,102335.50
2023-02-16T09:08:19.750Z,102327.59
2023-02-16T09:10:46.290Z,102326.69
2023-02-16T09:13:16.257Z,102319.66
2023-02-16T09:15:43.926Z,102317.00
2023-02-16T09:18:12.530Z,102321.34
2023-02-16T09:20:41.368Z,102327.47
2023-02-16T09:23:10.668Z,102322.16
2023-02-16T09:25:38.643Z,102321.19
2023-02-16T09:28:06.414Z,102321.13
2023-02-16T09:30:34.674Z,102318.41
2023-02-16T09:33:01.639Z,102313.00
2023-02-16T09:35:28.142Z,102321.72
2023-02-16T09:37:54.606Z,102325.16
2023-02-16T09:40:21.584Z,102314.53
2023-02-16T09:43:03.075Z,102314.34
2023-02-16T09:45:35.094Z,102305.38
2023-02-16T09:48:02.185Z,102301.91
2023-02-16T09:50:53.796Z,102296.38
2023-02-16T09:53:35.388Z,102285.97
2023-02-16T09:56:28.244Z,102294.09
2023-02-16T09:59:00.043Z,102288.91
2023-02-16T10:01:38.840Z,102299.88
2023-02-16T10:04:23.816Z,102294.59
2023-02-16T10:07:18.652Z,102287.44
2023-02-16T10:09:48.549Z,102282.13
2023-02-16T10:12:19.493Z,102271.47
2023-02-16T10:14:49.696Z,102284.41
2023-02-16T10:17:24.032Z,102288.84
2023-02-16T10:19:57.377Z,102289.78
2023-02-16T10:22:43.992Z,102310.88
2023-02-16T10:25:29.694Z,102301.25
2023-02-16T10:28:16.106Z,102295.13
2023-02-16T10:30:51.591Z,102294.22
2023-02-16T10:33:42.583Z,102295.31
2023-02-16T10:36:21.636Z,102294.44
2023-02-16T10:39:23.822Z,102305.97
2023-02-16T10:41:58.261Z,102304.19
2023-02-16T10:44:37.217Z,102290.94
2023-02-16T10:47:05.593Z,102296.13
2023-02-16T10:49:32.748Z,102285.44
2023-02-16T10:52:01.555Z,102297.63
2023-02-16T10:54:32.456Z,102292.41
2023-02-16T10:57:22.527Z,102288.66
2023-02-16T10:59:49.427Z,102275.38
2023-02-16T11:02:22.734Z,102286.66
2023-02-16T11:04:52.556Z,102275.94
2023-02-16T11:07:27.553Z,102266.88
2023-02-16T11:09:56.231Z,102271.00
2023-02-16T11:12:34.440Z,102260.47
2023-02-16T11:15:14.067Z,102268.97
2023-02-16T11:18:04.763Z,102280.38
2023-02-16T11:20:46.585Z,102280.50
2023-02-16T11:23:26.957Z,102276.88
2023-02-16T11:26:10.259Z,102274.66
2023-02-16T11:28:41.145Z,102261.75
2023-02-16T11:31:14.202Z,102284.84
2023-02-16T11:33:41.793Z,102273.44
2023-02-16T11:36:32.488Z,102273.47
2023-02-16T11:39:05.406Z,102274.03
2023-02-16T11:41:33.611Z,102270.44
2023-02-16T11:44:01.993Z,102250.72
2023-02-16T11:46:29.409Z,102272.81
2023-02-16T11:48:55.955Z,102267.88
2023-02-16T11:51:34.472Z,102247.03
2023-02-16T11:54:06.249Z,102247.63
2023-02-16T11:56:34.577Z,102249.50
2023-02-16T11:59:15.501Z,102248.81
2023-02-16T12:02:03.095Z,102227.38
2023-02-16T12:04:32.547Z,102232.53
2023-02-16T12:07:15.410Z,102206.47
2023-02-16T12:09:56.331Z,102200.22
2023-02-16T12:12:32.131Z,102214.88
2023-02-16T12:15:21.209Z,102219.03
2023-02-16T12:18:12.786Z,102188.16
2023-02-16T12:20:48.101Z,102195.09
2023-02-16T12:23:32.948Z,102202.34
2023-02-16T12:26:08.677Z,102192.84
2023-02-16T12:28:56.581Z,102192.25
2023-02-16T12:31:35.860Z,102193.44
2023-02-16T12:34:15.900Z,102199.25
2023-02-16T12:36:54.470Z,102196.34
2023-02-16T12:39:32.214Z,102194.88
2023-02-16T12:42:14.390Z,102183.84
2023-02-16T12:45:04.719Z,102181.50
2023-02-16T12:48:06.892Z,102190.75
2023-02-16T12:50:34.763Z,102192.59
2023-02-16T12:53:17.378Z,102176.56
2023-02-16T12:55:56.635Z,102186.16
2023-02-16T12:58:31.061Z,102172.31
2023-02-16T13:01:02.314Z,102156.38
2023-02-16T13:03:35.047Z,102153.69
2023-02-16T13:06:42.599Z,102148.06
2023-02-16T13:09:43.164Z,102142.84
2023-02-16T13:12:27.913Z,102127.78
2023-02-16T13:15:03.006Z,102132.03
2023-02-16T13:17:43.220Z,102131.56
2023-02-16T13:20:19.796Z,102132.44
2023-02-16T13:23:13.079Z,102119.03
2023-02-16T13:25:48.910Z,102144.81
2023-02-16T13:28:58.447Z,102122.31
2023-02-16T13:31:43.612Z,102107.19
2023-02-16T13:34:26.671Z,102116.25
2023-02-16T13:37:02.145Z,102108.94
2023-02-16T13:39:47.674Z,102102.78
2023-02-16T13:42:44.729Z,102090.22
2023-02-16T13:45:17.136Z,102100.91
2023-02-16T13:47:43.764Z,102102.66
2023-02-16T13:50:22.395Z,102073.06
2023-02-16T13:52:50.488Z,102091.31
2023-02-16T13:55:29.251Z,102091.44
2023-02-16T13:58:14.587Z,102078.84
2023-02-16T14:00:49.164Z,102074.44
2023-02-16T14:03:21.556Z,102084.84
2023-02-16T14:06:27.039Z,102081.34
2023-02-16T14:09:12.149Z,102080.28
2023-02-16T14:11:51.478Z,102072.50
2023-02-16T14:14:39.137Z,102078.63
2023-02-16T14:17:15.070Z,102094.66
2023-02-16T14:20:05.173Z,102066.03
2023-02-16T14:22:49.339Z,102062.91
2023-02-16T14:25:25.034Z,102056.19
2023-02-16T14:28:00.264Z,102064.34
2023-02-16T14:30:36.003Z,102065.44
2023-02-16T14:33:16.447Z,102066.56
2023-02-16T14:36:08.054Z,102077.34
2023-02-16T14:38:36.926Z,102080.09
2023-02-16T14:41:07.975Z,102065.31
2023-02-16T14:43:44.203Z,102062.88
2023-02-16T14:46:41.774Z,102089.19
2023-02-16T14:49:11.252Z,102062.66
2023-02-16T14:52:00.480Z,102062.59
2023-02-16T14:54:50.669Z,102065.91
2023-02-16T14:57:24.327Z,102069.56
2023-02-16T15:00:03.635Z,102074.88
2023-02-16T15:02:40.068Z,102075.06
2023-02-16T15:05:19.096Z,102053.28
2023-02-16T15:07:50.396Z,102053.53
2023-02-16T15:10:22.008Z,102053.56
2023-02-16T15:12:51.361Z,102048.28
2023-02-16T15:15:20.687Z,102061.50
2023-02-16T15:17:48.539Z,102049.09
2023-02-16T15:20:27.589Z,102061.28
2023-02-16T15:22:56.504Z,102054.06
2023-02-16T15:25:27.757Z,102065.34
2023-02-16T15:27:59.119Z,102061.00
2023-02-16T15:30:29.948Z,102069.78
2023-02-16T15:33:07.859Z,102073.31
2023-02-16T15:35:38.757Z,102072.50
2023-02-16T15:38:13.276Z,102061.06
2023-02-16T15:40:40.143Z,102077.84
2023-02-16T15:43:27.139Z,102079.06
2023-02-16T15:45:54.865Z,102078.56
2023-02-16T15:48:23.176Z,102070.97
2023-02-16T15:50:50.939Z,102079.81
2023-02-16T15:53:25.018Z,102078.25
2023-02-16T15:55:51.771Z,102071.38
2023-02-16T15:58:18.458Z,102076.69
2023-02-16T16:00:45.204Z,102067.94
2023-02-16T16:03:17.166Z,102062.69
2023-02-16T16:05:55.391Z,102070.72
2023-02-16T16:08:22.835Z,102067.28
2023-02-16T16:10:49.432Z,102063.81
2023-02-16T16:13:30.902Z,102062.06
2023-02-16T16:16:01.887Z,102051.47
2023-02-16T16:18:39.213Z,102059.41
2023-02-16T16:21:29.160Z,102047.16
2023-02-16T16:24:04.839Z,102054.13
2023-02-16T16:26:50.127Z,102047.19
2023-02-16T16:29:45.518Z,102047.31
2023-02-16T16:32:25.476Z,102033.28
2023-02-16T16:34:52.025Z,102036.81
2023-02-16T16:37:25.120Z,102042.94
2023-02-16T16:40:00.858Z,102040.34
2023-02-16T16:42:28.196Z,102037.66
2023-02-16T16:45:07.805Z,102015.69
2023-02-16T16:47:34.668Z,102027.06
2023-02-16T16:50:03.926Z,102013.00
2023-02-16T16:52:46.784Z,102017.34
2023-02-16T16:55:19.280Z,102012.94
2023-02-16T16:57:47.035Z,102002.41
2023-02-16T17:00:14.491Z,101997.13
2023-02-16T17:02:41.013Z,102020.03
2023-02-16T17:05:08.020Z,102024.44
2023-02-16T17:07:34.574Z,102011.16
2023-02-16T17:10:01.340Z,102021.66
2023-02-16T17:12:27.960Z,102019.84
2023-02-16T17:14:55.232Z,102009.34
2023-02-16T17:17:21.793Z,102015.53
2023-02-16T17:19:48.299Z,102019.91
2023-02-16T17:22:19.942Z,101999.69
2023-02-16T17:24:47.056Z,102015.53
2023-02-16T17:27:14.013Z,102018.19
2023-02-16T17:29:43.004Z,102008.50
2023-02-16T17:32:09.843Z,102012.88
2023-02-16T17:34:36.485Z,102007.59
2023-02-16T17:37:07.444Z,102023.41
2023-02-16T17:39:35.105Z,102025.16
2023-02-16T17:42:02.294Z,102014.63
2023-02-16T17:44:28.851Z,102010.28
2023-02-16T17:46:55.392Z,102006.75
2023-02-16T17:49:21.937Z,102012.03
2023-02-16T17:51:48.412Z,102007.59
2023-02-16T17:54:14.894Z,102004.09
2023-02-16T17:56:41.714Z,102012.88
2023-02-16T17:59:09.979Z,102011.94
2023-02-16T18:01:37.698Z,102011.09
2023-02-16T18:04:04.539Z,102003.19
2023-02-16T18:06:31.735Z,102000.53
2023-02-16T18:08:58.305Z,101993.47
2023-02-16T18:11:24.967Z,102002.31
2023-02-16T18:13:52.099Z,102006.72
2023-02-16T18:16:21.867Z,102012.00
2023-02-16T18:18:48.430Z,102000.63
2023-02-16T18:21:14.959Z,101999.69
2023-02-16T18:23:41.897Z,102001.47
2023-02-16T18:26:08.798Z,102017.28
2023-02-16T18:28:35.472Z,102014.63
2023-02-16T18:31:02.193Z,102035.69
2023-02-16T18:33:28.719Z,102019.88
2023-02-16T18:35:57.478Z,102023.41
2023-02-16T18:38:24.538Z,102011.06
2023-02-16T18:40:52.452Z,101992.59
2023-02-16T18:43:19.007Z,101995.22
2023-02-16T18:45:45.563Z,101994.28
2023-02-16T18:48:12.135Z,101997.81
2023-02-16T18:50:39.502Z,102003.97
2023-02-16T18:53:06.251Z,102009.16
2023-02-16T18:55:33.447Z,102010.88
2023-02-16T18:58:08.551Z,102002.97
2023-02-16T19:00:35.834Z,102010.88
2023-02-16T19:03:02.922Z,102014.34
2023-02-16T19:05:29.481Z,102015.97
2023-02-16T19:07:55.962Z,102012.44
2023-02-16T19:10:23.128Z,102029.06
2023-02-16T19:12:50.103Z,102028.19
2023-02-16T19:15:16.674Z,102025.53
2023-02-16T19:17:43.159Z,102012.31
2023-02-16T19:20:12.406Z,102021.91
2023-02-16T19:22:39.120Z,102017.50
2023-02-16T19:25:06.642Z,102012.22
2023-02-16T19:27:33.354Z,102010.47
2023-02-16T19:30:00.256Z,102010.41
2023-02-16T19:32:26.971Z,102012.13
2023-02-16T19:34:53.510Z,101998.03
2023-02-16T19:37:20.193Z,102007.75
2023-02-16T19:39:46.775Z,101996.25
2023-02-16T19:42:13.380Z,102002.44
2023-02-16T19:44:40.717Z,101988.34
2023-02-16T19:47:07.641Z,101998.00
2023-02-16T19:49:36.177Z,102007.75
2023-02-16T19:52:04.109Z,102006.81
2023-02-16T19:54:34.802Z,101997.16
2023-02-16T19:57:02.271Z,101991.88
2023-02-16T19:59:28.803Z,102004.16
2023-02-16T20:01:55.478Z,102007.66
2023-02-16T20:04:22.136Z,101979.47
2023-02-16T20:06:49.102Z,101998.00
2023-02-16T20:09:17.959Z,101987.44
2023-02-16T20:11:44.520Z,101997.09
2023-02-16T20:14:11.784Z,101997.16
2023-02-16T20:16:38.664Z,101992.75
2023-02-16T20:19:05.335Z,101991.88
2023-02-16T20:21:32.458Z,101987.41
2023-02-16T20:24:04.391Z,102008.53
2023-02-16T20:26:36.487Z,101988.25
2023-02-16T20:29:04.473Z,101991.75
2023-02-16T20:31:40.561Z,101995.25
2023-02-16T20:34:08.257Z,101997.88
2023-02-16T20:36:35.887Z,101995.19
2023-02-16T20:39:03.110Z,101986.41
2023-02-16T20:41:29.682Z,101988.19
2023-02-16T20:43:56.289Z,101995.19
2023-02-16T20:46:23.970Z,102001.38
2023-02-16T20:48:51.020Z,101996.91
2023-02-16T20:51:18.765Z,101986.41
2023-02-16T20:53:45.552Z,102005.72
2023-02-16T20:56:23.887Z,101999.56
2023-02-16T20:58:52.460Z,101996.91
2023-02-16T21:01:31.341Z,102004.03
2023-02-16T21:03:59.396Z,101989.88
2023-02-16T21:06:26.964Z,101984.59
2023-02-16T21:08:53.489Z,102004.88
2023-02-16T21:11:20.624Z,102003.13
2023-02-16T21:13:47.498Z,102005.69
2023-02-16T21:16:14.889Z,102008.44
2023-02-16T21:18:41.832Z,102004.91
2023-02-16T21:21:09.146Z,101996.09
2023-02-16T21:23:35.855Z,102010.19
2023-02-16T21:26:05.933Z,102000.53
2023-02-16T21:28:32.635Z,102019.00
2023-02-16T21:31:05.495Z,102012.88
2023-02-16T21:33:32.277Z,102009.41
2023-02-16T21:36:04.465Z,102009.44
2023-02-16T21:38:31.241Z,101996.28
2023-02-16T21:41:27.634Z,101998.03
2023-02-16T21:44:14.619Z,102004.28
2023-02-16T21:46:45.391Z,101985.81
2023-02-16T21:49:14.611Z,101991.09
2023-02-16T21:51:41.960Z,101994.66
2023-02-16T21:54:11.351Z,102003.50
2023-02-16T21:56:44.421Z,102001.75
2023-02-16T21:59:13.237Z,101999.13
2023-02-16T22:01:43.109Z,101991.25
2023-02-16T22:04:17.678Z,101978.09
2023-02-16T22:06:45.802Z,101986.91
2023-02-16T22:09:15.060Z,101982.50
2023-02-16T22:11:41.673Z,101978.16
2023-02-16T22:14:08.299Z,101970.25
2023-02-16T22:16:36.161Z,101963.19
2023-02-16T22:19:12.557Z,101963.19
2023-02-16T22:21:40.737Z,101967.66
2023-02-16T22:24:08.092Z,101978.19
2023-02-16T22:26:35.834Z,101981.72
2023-02-16T22:29:07.266Z,101991.44
2023-02-16T22:31:34.498Z,101981.78
2023-02-16T22:34:12.816Z,101980.00
2023-02-16T22:36:40.276Z,101993.19
2023-02-16T22:39:06.819Z,101962.41
2023-02-16T22:41:34.596Z,101972.97
2023-02-16T22:44:01.217Z,101975.59
2023-02-16T22:46:28.792Z,101985.38
2023-02-16T22:48:58.506Z,101965.16
2023-02-16T22:51:28.958Z,101973.97
2023-02-16T22:53:57.358Z,101982.81
2023-02-16T22:56:23.940Z,101996.81
2023-02-16T22:58:50.401Z,101982.75
2023-02-16T23:01:19.141Z,101982.75
2023-02-16T23:03:47.563Z,101973.94
2023-02-16T23:06:15.946Z,101985.31
2023-02-16T23:08:43.051Z,101975.59
2023-02-16T23:11:10.063Z,101982.69
2023-02-16T23:13:36.796Z,101987.16
2023-02-16T23:16:06.167Z,101992.47
2023-02-16T23:18:32.990Z,101989.09
2023-02-16T23:21:38.834Z,101991.72
2023-02-16T23:24:05.840Z,101974.22
2023-02-16T23:26:32.539Z,101991.88
2023-02-16T23:29:01.566Z,101995.47
2023-02-16T23:31:31.557Z,102007.00
2023-02-16T23:33:59.465Z,101978.97
2023-02-16T23:36:27.656Z,101993.06
2023-02-16T23:38:54.275Z,102002.06
2023-02-16T23:41:20.772Z,101981.97
2023-02-16T23:43:47.524Z,101993.50
2023-02-16T23:46:14.024Z,101982.34
2023-02-16T23:48:40.543Z,101976.31
2023-02-16T23:51:07.014Z,101975.53
2023-02-16T23:53:34.011Z,101972.94
2023-02-16T23:56:00.746Z,101981.84
2023-02-16T23:58:32.087Z,101993.34
